Main page
METAR-TAF:

METAR-TAF

Airports :

Philip S. W. Goldson International Airport

Belize City, Belize

latitude: 17-32N, longitude: 088-18W, elevation: 5 m

Current weather observation

The report was made 4 hours and 12 minutes ago, at 01:00 UTC
Wind 5 kt from the East
Temperature 26°C
Humidity 94%
Pressure 1014 hPa
Visibility 10 km or more
Few clouds at a height of 1800 ft

METAR: MZBZ 090100Z 09005KT 9999 FEW018 26/25 A2996 Q1014 NOSIG

Time: 23:12 (05:12 UTC)

Forecast

The report was made 8 hours and 12 minutes ago, at 21:00 UTC
Forecast valid from 09 at 00 UTC to 09 at 24 UTC
Wind 10 kt from the East
Visibility 10 km or more
Scattered clouds at a height of 2300 ft
Probability 30% :
Temporary
from 09 at 00 UTC to 09 at 20 UTC
Visibility: 5000 m
Broken clouds at a height of 1500 ft
rain showers

TAF: MZBZ 082100Z 0900/0924 09010KT 9999 SCT023 PROB30 TEMPO 0900/0920 5000 SHRA BKN015

Weather observations and forecasts of more than 4000 airports (METAR and TAF reports).

The available stations are represented by yellow and red dots on the map.

Hover mouse over dot to see the name of the station.

Then click to see weather observations and forecasts.

To change the map : click on the green buttons with a black cross to zoom in, on the green button with a dash to zoom out, or on the green arrows for adjacent maps.


METAR-TAF: